createdAt,value
2023-02-16T00:00:00.819Z,102890
2023-02-16T00:01:01.677Z,102890
2023-02-16T00:02:00.816Z,102890
2023-02-16T00:03:00.734Z,102890
2023-02-16T00:04:01.419Z,102890
2023-02-16T00:05:00.732Z,102890
2023-02-16T00:06:00.733Z,102890
2023-02-16T00:07:00.736Z,102890
2023-02-16T00:08:01.166Z,102890
2023-02-16T00:09:00.732Z,102880
2023-02-16T00:10:00.732Z,102880
2023-02-16T00:11:00.829Z,102880
2023-02-16T00:12:00.815Z,102880
2023-02-16T00:13:01.309Z,102890
2023-02-16T00:14:01.001Z,102890
2023-02-16T00:15:00.730Z,102890
2023-02-16T00:16:00.738Z,102890
2023-02-16T00:17:00.983Z,102890
2023-02-16T00:18:01.359Z,102880
2023-02-16T00:19:00.864Z,102880
2023-02-16T00:20:00.694Z,102880
2023-02-16T00:21:00.725Z,102880
2023-02-16T00:22:01.472Z,102880
2023-02-16T00:23:00.730Z,102880
2023-02-16T00:24:00.760Z,102890
2023-02-16T00:25:00.740Z,102880
2023-02-16T00:26:01.637Z,102880
2023-02-16T00:27:00.873Z,102890
2023-02-16T00:28:03.409Z,102890
2023-02-16T00:29:00.695Z,102890
2023-02-16T00:30:00.808Z,102880
2023-02-16T00:31:00.801Z,102880
2023-02-16T00:32:01.635Z,102880
2023-02-16T00:33:00.779Z,102890
2023-02-16T00:34:10.575Z,102880
2023-02-16T00:35:00.718Z,102880
2023-02-16T00:36:00.748Z,102880
2023-02-16T00:37:02.578Z,102880
2023-02-16T00:38:00.736Z,102880
2023-02-16T00:39:00.730Z,102880
2023-02-16T00:40:00.728Z,102880
2023-02-16T00:41:00.907Z,102880
2023-02-16T00:42:02.628Z,102880
2023-02-16T00:43:00.752Z,102880
2023-02-16T00:45:00.801Z,102870
2023-02-16T00:46:00.782Z,102880
2023-02-16T00:47:02.566Z,102870
2023-02-16T00:48:00.807Z,102870
2023-02-16T00:49:00.730Z,102870
2023-02-16T00:50:00.781Z,102880
2023-02-16T00:51:00.786Z,102870
2023-02-16T00:52:00.887Z,102870
2023-02-16T00:53:00.889Z,102880
2023-02-16T00:54:00.719Z,102870
2023-02-16T00:55:02.306Z,102870
2023-02-16T00:56:00.799Z,102870
2023-02-16T00:57:00.759Z,102880
2023-02-16T00:58:00.753Z,102870
2023-02-16T00:59:01.571Z,102870
2023-02-16T01:00:04.798Z,102870
2023-02-16T01:01:05.507Z,102870
2023-02-16T01:02:00.738Z,102870
2023-02-16T01:03:03.990Z,102870
2023-02-16T01:04:02.171Z,102870
2023-02-16T01:05:00.719Z,102870
2023-02-16T01:06:00.733Z,102870
2023-02-16T01:07:00.771Z,102870
2023-02-16T01:08:00.895Z,102870
2023-02-16T01:09:10.338Z,102860
2023-02-16T01:10:00.748Z,102860
2023-02-16T01:11:02.915Z,102860
2023-02-16T01:12:01.660Z,102870
2023-02-16T01:13:00.765Z,102860
2023-02-16T01:14:00.884Z,102860
2023-02-16T01:15:00.762Z,102860
2023-02-16T01:16:00.820Z,102860
2023-02-16T01:17:00.728Z,102860
2023-02-16T01:18:00.824Z,102870
2023-02-16T01:19:00.706Z,102870
2023-02-16T01:20:00.788Z,102870
2023-02-16T01:21:00.879Z,102870
2023-02-16T01:22:00.724Z,102870
2023-02-16T01:23:00.914Z,102870
2023-02-16T01:24:00.875Z,102870
2023-02-16T01:25:00.728Z,102860
2023-02-16T01:26:00.739Z,102860
2023-02-16T01:27:01.278Z,102860
2023-02-16T01:28:00.766Z,102860
2023-02-16T01:29:00.738Z,102860
2023-02-16T01:30:00.808Z,102860
2023-02-16T01:31:01.517Z,102860
2023-02-16T01:32:00.861Z,102860
2023-02-16T01:33:00.729Z,102860
2023-02-16T01:34:00.876Z,102860
2023-02-16T01:35:00.733Z,102860
2023-02-16T01:36:00.727Z,102860
2023-02-16T01:37:00.722Z,102870
2023-02-16T01:38:00.844Z,102860
2023-02-16T01:39:01.064Z,102870
2023-02-16T01:40:00.830Z,102860
2023-02-16T01:41:02.233Z,102860
2023-02-16T01:42:10.566Z,102860
2023-02-16T01:43:10.597Z,102860
2023-02-16T01:44:02.482Z,102860
2023-02-16T01:45:08.279Z,102860
2023-02-16T01:46:10.651Z,102860
2023-02-16T01:47:00.712Z,102860
2023-02-16T01:48:03.131Z,102860
2023-02-16T01:49:00.668Z,102860
2023-02-16T01:50:10.554Z,102860
2023-02-16T01:51:05.900Z,102860
2023-02-16T01:52:10.581Z,102860
2023-02-16T01:53:10.566Z,102860
2023-02-16T01:54:10.543Z,102860
2023-02-16T01:55:10.567Z,102860
2023-02-16T01:56:04.234Z,102860
2023-02-16T01:57:10.589Z,102850
2023-02-16T01:58:04.689Z,102850
2023-02-16T01:59:09.871Z,102850
2023-02-16T02:00:05.927Z,102850
2023-02-16T02:01:00.814Z,102850
2023-02-16T02:02:02.074Z,102850
2023-02-16T02:03:01.193Z,102850
2023-02-16T02:04:01.400Z,102850
2023-02-16T02:05:07.533Z,102850
2023-02-16T02:06:00.861Z,102850
2023-02-16T02:07:00.719Z,102850
2023-02-16T02:08:01.751Z,102850
2023-02-16T02:09:00.698Z,102850
2023-02-16T02:10:10.573Z,102840
2023-02-16T02:11:06.464Z,102850
2023-02-16T02:12:10.567Z,102840
2023-02-16T02:13:06.401Z,102840
2023-02-16T02:14:08.062Z,102850
2023-02-16T02:15:00.720Z,102850
2023-02-16T02:16:02.972Z,102840
2023-02-16T02:17:02.991Z,102850
2023-02-16T02:18:00.938Z,102850
2023-02-16T02:19:00.774Z,102850
2023-02-16T02:20:08.859Z,102850
2023-02-16T02:21:10.564Z,102850
2023-02-16T02:22:10.523Z,102840
2023-02-16T02:23:00.698Z,102840
2023-02-16T02:24:10.539Z,102840
2023-02-16T02:25:10.585Z,102840
2023-02-16T02:26:01.795Z,102840
2023-02-16T02:27:00.718Z,102840
2023-02-16T02:28:10.708Z,102840
2023-02-16T02:29:01.777Z,102840
2023-02-16T02:30:00.746Z,102840
2023-02-16T02:31:05.526Z,102840
2023-02-16T02:32:01.840Z,102840
2023-02-16T02:33:00.761Z,102840
2023-02-16T02:34:01.747Z,102840
2023-02-16T02:35:10.587Z,102840
2023-02-16T02:36:07.797Z,102840
2023-02-16T02:37:10.594Z,102840
2023-02-16T02:38:08.135Z,102840
2023-02-16T02:39:00.742Z,102840
2023-02-16T02:40:01.810Z,102840
2023-02-16T02:41:00.728Z,102840
2023-02-16T02:42:04.135Z,102830
2023-02-16T02:43:10.594Z,102830
2023-02-16T02:44:05.291Z,102830
2023-02-16T02:45:06.063Z,102830
2023-02-16T02:46:10.625Z,102830
2023-02-16T02:47:00.967Z,102830
2023-02-16T02:48:00.694Z,102820
2023-02-16T02:49:00.735Z,102830
2023-02-16T02:50:00.725Z,102830
2023-02-16T02:51:03.167Z,102830
2023-02-16T02:52:00.981Z,102820
2023-02-16T02:53:02.304Z,102820
2023-02-16T02:54:10.577Z,102830
2023-02-16T02:55:00.783Z,102830
2023-02-16T02:56:01.765Z,102830
2023-02-16T02:57:00.638Z,102830
2023-02-16T02:58:01.195Z,102820
2023-02-16T02:59:04.053Z,102820
2023-02-16T03:00:06.915Z,102820
2023-02-16T03:01:01.103Z,102820
2023-02-16T03:02:01.633Z,102820
2023-02-16T03:03:05.749Z,102820
2023-02-16T03:04:02.687Z,102820
2023-02-16T03:05:02.375Z,102820
2023-02-16T03:06:00.695Z,102820
2023-02-16T03:07:01.542Z,102820
2023-02-16T03:08:03.934Z,102830
2023-02-16T03:09:03.589Z,102830
2023-02-16T03:10:00.729Z,102820
2023-02-16T03:11:05.495Z,102820
2023-02-16T03:12:02.335Z,102820
2023-02-16T03:13:01.252Z,102830
2023-02-16T03:14:03.692Z,102830
2023-02-16T03:15:01.655Z,102830
2023-02-16T03:16:03.729Z,102830
2023-02-16T03:17:03.959Z,102820
2023-02-16T03:18:01.742Z,102830
2023-02-16T03:19:01.781Z,102830
2023-02-16T03:20:02.560Z,102820
2023-02-16T03:21:02.105Z,102830
2023-02-16T03:22:01.697Z,102830
2023-02-16T03:23:02.140Z,102830
2023-02-16T03:24:02.604Z,102830
2023-02-16T03:25:00.770Z,102830
2023-02-16T03:26:01.106Z,102820
2023-02-16T03:27:01.171Z,102830
2023-02-16T03:28:01.898Z,102830
2023-02-16T03:29:01.561Z,102820
2023-02-16T03:30:01.738Z,102820
2023-02-16T03:31:02.249Z,102820
2023-02-16T03:32:01.056Z,102820
2023-02-16T03:33:00.764Z,102820
2023-02-16T03:34:01.773Z,102820
2023-02-16T03:35:00.779Z,102820
2023-02-16T03:36:01.748Z,102830
2023-02-16T03:37:01.114Z,102820
2023-02-16T03:38:01.135Z,102830
2023-02-16T03:39:01.308Z,102820
2023-02-16T03:40:00.750Z,102830
2023-02-16T03:41:01.007Z,102820
2023-02-16T03:42:00.859Z,102820
2023-02-16T03:43:02.504Z,102820
2023-02-16T03:44:00.667Z,102820
2023-02-16T03:45:00.862Z,102830
2023-02-16T03:50:00.784Z,102830
2023-02-16T03:51:00.715Z,102830
2023-02-16T03:52:00.729Z,102830
2023-02-16T03:53:00.877Z,102830
2023-02-16T03:54:00.712Z,102830
2023-02-16T03:55:00.769Z,102830
2023-02-16T03:56:00.787Z,102830
2023-02-16T03:57:00.751Z,102830
2023-02-16T03:58:00.894Z,102830
2023-02-16T03:59:00.753Z,102830
2023-02-16T04:00:00.904Z,102830
2023-02-16T04:01:00.882Z,102830
2023-02-16T04:02:00.809Z,102830
2023-02-16T04:03:01.008Z,102830
2023-02-16T04:04:00.814Z,102830
2023-02-16T04:05:00.766Z,102830
2023-02-16T04:06:00.787Z,102830
2023-02-16T04:07:00.771Z,102830
2023-02-16T04:08:00.810Z,102830
2023-02-16T04:09:00.933Z,102830
2023-02-16T04:10:00.763Z,102830
2023-02-16T04:11:00.797Z,102830
2023-02-16T04:12:00.851Z,102830
2023-02-16T04:13:00.714Z,102830
2023-02-16T04:14:00.754Z,102830
2023-02-16T04:15:01.066Z,102830
2023-02-16T04:16:00.730Z,102830
2023-02-16T04:17:00.732Z,102820
2023-02-16T04:18:00.860Z,102820
2023-02-16T04:19:00.703Z,102830
2023-02-16T04:20:00.763Z,102820
2023-02-16T04:21:00.757Z,102820
2023-02-16T04:22:00.762Z,102830
2023-02-16T04:23:01.118Z,102830
2023-02-16T04:24:00.755Z,102820
2023-02-16T04:25:00.717Z,102830
2023-02-16T04:26:00.899Z,102830
2023-02-16T04:27:00.711Z,102830
2023-02-16T04:28:00.729Z,102830
2023-02-16T04:29:00.709Z,102830
2023-02-16T04:30:00.865Z,102830
2023-02-16T04:31:00.902Z,102830
2023-02-16T04:32:00.837Z,102830
2023-02-16T04:33:00.705Z,102830
2023-02-16T04:34:00.801Z,102830
2023-02-16T04:35:00.999Z,102820
2023-02-16T04:36:00.743Z,102820
2023-02-16T04:37:01.147Z,102830
2023-02-16T04:38:00.701Z,102830
2023-02-16T04:39:00.966Z,102830
2023-02-16T04:40:01.125Z,102830
2023-02-16T04:41:00.708Z,102830
2023-02-16T04:42:00.720Z,102830
2023-02-16T04:43:00.741Z,102830
2023-02-16T04:44:00.939Z,102830
2023-02-16T04:45:00.833Z,102830
2023-02-16T04:46:00.831Z,102830
2023-02-16T04:47:00.754Z,102830
2023-02-16T04:48:00.758Z,102830
2023-02-16T04:49:00.742Z,102830
2023-02-16T04:50:00.751Z,102830
2023-02-16T04:51:02.933Z,102830
2023-02-16T04:52:00.781Z,102830
2023-02-16T04:53:00.741Z,102830
2023-02-16T04:54:00.698Z,102830
2023-02-16T04:55:00.743Z,102830
2023-02-16T04:56:00.929Z,102830
2023-02-16T04:57:00.754Z,102830
2023-02-16T04:58:00.703Z,102830
2023-02-16T04:59:00.693Z,102830
2023-02-16T05:00:00.764Z,102830
2023-02-16T05:01:00.960Z,102830
2023-02-16T05:02:00.693Z,102830
2023-02-16T05:03:00.757Z,102830
2023-02-16T05:04:00.791Z,102830
2023-02-16T05:05:00.717Z,102840
2023-02-16T05:06:00.713Z,102840
2023-02-16T05:07:00.929Z,102840
2023-02-16T05:08:02.168Z,102830
2023-02-16T05:09:00.982Z,102840
2023-02-16T05:10:00.706Z,102840
2023-02-16T05:11:00.845Z,102840
2023-02-16T05:12:00.756Z,102840
2023-02-16T05:13:01.364Z,102840
2023-02-16T05:14:00.730Z,102840
2023-02-16T05:15:00.712Z,102850
2023-02-16T05:16:00.772Z,102840
2023-02-16T05:17:00.754Z,102840
2023-02-16T05:18:00.800Z,102840
2023-02-16T05:19:00.710Z,102840
2023-02-16T05:20:00.762Z,102840
2023-02-16T05:21:00.785Z,102840
2023-02-16T05:22:00.926Z,102840
2023-02-16T05:23:00.749Z,102840
2023-02-16T05:24:03.334Z,102840
2023-02-16T05:25:01.028Z,102840
2023-02-16T05:26:00.732Z,102840
2023-02-16T05:27:01.858Z,102840
2023-02-16T05:28:00.758Z,102840
2023-02-16T05:29:00.999Z,102850
2023-02-16T05:30:00.813Z,102850
2023-02-16T05:31:00.777Z,102850
2023-02-16T05:32:03.331Z,102850
2023-02-16T05:33:00.712Z,102850
2023-02-16T05:34:00.784Z,102850
2023-02-16T05:35:00.743Z,102850
2023-02-16T05:36:00.680Z,102850
2023-02-16T05:37:00.694Z,102850
2023-02-16T05:38:00.746Z,102850
2023-02-16T05:39:00.766Z,102860
2023-02-16T05:40:00.826Z,102860
2023-02-16T05:41:01.039Z,102860
2023-02-16T05:42:00.747Z,102850
2023-02-16T05:43:00.732Z,102850
2023-02-16T05:44:01.525Z,102850
2023-02-16T05:45:00.807Z,102850
2023-02-16T05:46:06.220Z,102850
2023-02-16T05:47:00.965Z,102850
2023-02-16T05:48:00.681Z,102850
2023-02-16T05:49:01.160Z,102850
2023-02-16T05:50:00.757Z,102850
2023-02-16T05:51:00.833Z,102850
2023-02-16T05:52:01.065Z,102850
2023-02-16T05:53:00.755Z,102850
2023-02-16T05:54:00.769Z,102850
2023-02-16T05:55:00.732Z,102850
2023-02-16T05:56:00.766Z,102850
2023-02-16T05:57:00.732Z,102850
2023-02-16T05:58:00.751Z,102850
2023-02-16T05:59:00.752Z,102850
2023-02-16T06:00:00.913Z,102850
2023-02-16T06:01:00.671Z,102850
2023-02-16T06:02:00.770Z,102850
2023-02-16T06:03:00.861Z,102860
2023-02-16T06:04:00.746Z,102860
2023-02-16T06:05:00.871Z,102860
2023-02-16T06:06:01.297Z,102860
2023-02-16T06:07:01.250Z,102860
2023-02-16T06:08:00.772Z,102870
2023-02-16T06:09:00.692Z,102870
2023-02-16T06:10:00.723Z,102860
2023-02-16T06:11:00.706Z,102860
2023-02-16T06:12:00.667Z,102870
2023-02-16T06:13:00.928Z,102870
2023-02-16T06:14:01.589Z,102860
2023-02-16T06:15:00.767Z,102860
2023-02-16T06:16:00.779Z,102860
2023-02-16T06:17:00.814Z,102860
2023-02-16T06:18:00.826Z,102860
2023-02-16T06:19:01.026Z,102860
2023-02-16T06:20:00.800Z,102860
2023-02-16T06:21:00.713Z,102860
2023-02-16T06:22:00.744Z,102860
2023-02-16T06:23:00.711Z,102860
2023-02-16T06:24:01.214Z,102860
2023-02-16T06:25:00.762Z,102860
2023-02-16T06:26:00.720Z,102870
2023-02-16T06:27:00.723Z,102870
2023-02-16T06:28:00.767Z,102870
2023-02-16T06:29:01.072Z,102870
2023-02-16T06:30:00.871Z,102870
2023-02-16T06:31:00.823Z,102870
2023-02-16T06:32:00.885Z,102870
2023-02-16T06:33:01.419Z,102870
2023-02-16T06:34:00.733Z,102870
2023-02-16T06:35:00.821Z,102870
2023-02-16T06:36:00.766Z,102870
2023-02-16T06:37:00.743Z,102880
2023-02-16T06:38:00.743Z,102880
2023-02-16T06:39:01.138Z,102880
2023-02-16T06:40:00.785Z,102880
2023-02-16T06:41:00.751Z,102880
2023-02-16T06:42:00.721Z,102880
2023-02-16T06:43:00.778Z,102890
2023-02-16T06:44:01.889Z,102880
2023-02-16T06:45:00.756Z,102880
2023-02-16T06:46:00.869Z,102880
2023-02-16T06:47:00.717Z,102890
2023-02-16T06:48:00.787Z,102890
2023-02-16T06:49:00.799Z,102890
2023-02-16T06:50:00.985Z,102890
2023-02-16T06:51:00.716Z,102890
2023-02-16T06:52:00.720Z,102890
2023-02-16T06:53:00.764Z,102900
2023-02-16T06:54:00.844Z,102900
2023-02-16T06:55:00.859Z,102900
2023-02-16T06:56:00.725Z,102900
2023-02-16T06:57:00.818Z,102900
2023-02-16T06:58:00.731Z,102900
2023-02-16T06:59:01.062Z,102900
2023-02-16T07:00:00.764Z,102900
2023-02-16T07:01:00.799Z,102900
2023-02-16T07:02:00.736Z,102910
2023-02-16T07:03:00.810Z,102910
2023-02-16T07:04:00.763Z,102910
2023-02-16T07:05:00.967Z,102910
2023-02-16T07:06:00.730Z,102910
2023-02-16T07:07:01.367Z,102910
2023-02-16T07:08:00.779Z,102910
2023-02-16T07:09:01.183Z,102910
2023-02-16T07:10:00.739Z,102920
2023-02-16T07:11:00.748Z,102910
2023-02-16T07:12:00.717Z,102920
2023-02-16T07:13:00.751Z,102920
2023-02-16T07:14:00.727Z,102920
2023-02-16T07:15:00.724Z,102920
2023-02-16T07:16:00.999Z,102920
2023-02-16T07:17:00.748Z,102920
2023-02-16T07:18:00.781Z,102930
2023-02-16T07:19:00.995Z,102930
2023-02-16T07:20:00.759Z,102930
2023-02-16T07:21:00.827Z,102930
2023-02-16T07:22:01.341Z,102930
2023-02-16T07:23:00.729Z,102930
2023-02-16T07:24:00.768Z,102930
2023-02-16T07:25:00.727Z,102930
2023-02-16T07:26:00.726Z,102930
2023-02-16T07:27:00.732Z,102930
2023-02-16T07:28:00.711Z,102940
2023-02-16T07:29:00.717Z,102940
2023-02-16T07:30:00.889Z,102940
2023-02-16T07:31:10.307Z,102940
2023-02-16T07:32:01.483Z,102940
2023-02-16T07:33:00.721Z,102940
2023-02-16T07:34:00.732Z,102940
2023-02-16T07:35:00.755Z,102940
2023-02-16T07:36:00.756Z,102940
2023-02-16T07:37:00.745Z,102940
2023-02-16T07:38:01.163Z,102950
2023-02-16T07:39:00.723Z,102940
2023-02-16T07:40:00.700Z,102940
2023-02-16T07:41:01.214Z,102940
2023-02-16T07:42:00.786Z,102950
2023-02-16T07:43:01.743Z,102950
2023-02-16T07:44:00.744Z,102950
2023-02-16T07:45:00.772Z,102950
2023-02-16T07:46:01.125Z,102950
2023-02-16T07:47:00.754Z,102950
2023-02-16T07:48:01.470Z,102950
2023-02-16T07:49:00.753Z,102950
2023-02-16T07:50:00.764Z,102950
2023-02-16T07:51:01.025Z,102950
2023-02-16T07:52:00.914Z,102950
2023-02-16T07:53:01.524Z,102960
2023-02-16T07:54:00.741Z,102960
2023-02-16T07:55:00.861Z,102960
2023-02-16T07:56:00.711Z,102960
2023-02-16T07:57:00.744Z,102960
2023-02-16T07:58:01.664Z,102960
2023-02-16T07:59:01.449Z,102960
2023-02-16T08:00:00.804Z,102960
2023-02-16T08:01:09.549Z,102960
2023-02-16T08:02:00.907Z,102960
2023-02-16T08:03:01.420Z,102960
2023-02-16T08:04:00.687Z,102960
2023-02-16T08:05:00.746Z,102960
2023-02-16T08:06:01.305Z,102960
2023-02-16T08:07:00.708Z,102960
2023-02-16T08:08:00.767Z,102970
2023-02-16T08:09:00.709Z,102970
2023-02-16T08:10:00.740Z,102970
2023-02-16T08:11:07.011Z,102960
2023-02-16T08:12:00.712Z,102970
2023-02-16T08:13:01.031Z,102970
2023-02-16T08:14:00.852Z,102970
2023-02-16T08:15:00.721Z,102970
2023-02-16T08:16:00.750Z,102970
2023-02-16T08:17:00.986Z,102970
2023-02-16T08:18:00.698Z,102970
2023-02-16T08:19:01.036Z,102970
2023-02-16T08:20:00.977Z,102970
2023-02-16T08:21:10.568Z,102970
2023-02-16T08:22:00.875Z,102970
2023-02-16T08:23:00.730Z,102970
2023-02-16T08:24:01.878Z,102970
2023-02-16T08:25:00.743Z,102980
2023-02-16T08:26:07.041Z,102980
2023-02-16T08:27:02.613Z,102980
2023-02-16T08:28:00.691Z,102980
2023-02-16T08:29:00.743Z,102980
2023-02-16T08:30:00.807Z,102980
2023-02-16T08:31:02.185Z,102980
2023-02-16T08:32:01.312Z,102980
2023-02-16T08:33:00.715Z,102980
2023-02-16T08:34:01.062Z,102980
2023-02-16T08:35:00.709Z,102980
2023-02-16T08:36:00.746Z,102980
2023-02-16T08:37:00.743Z,102980
2023-02-16T08:38:00.758Z,102980
2023-02-16T08:39:02.480Z,102980
2023-02-16T08:40:00.910Z,102980
2023-02-16T08:41:00.831Z,102980
2023-02-16T08:42:01.133Z,102970
2023-02-16T08:43:00.711Z,102980
2023-02-16T08:44:01.166Z,102980
2023-02-16T08:45:00.748Z,102980
2023-02-16T08:46:00.818Z,102980
2023-02-16T08:47:00.832Z,102980
2023-02-16T08:48:00.729Z,102980
2023-02-16T08:49:01.002Z,102980
2023-02-16T08:50:00.760Z,102980
2023-02-16T08:51:01.057Z,102970
2023-02-16T08:52:00.746Z,102970
2023-02-16T08:53:00.735Z,102970
2023-02-16T08:54:02.923Z,102970
2023-02-16T08:55:00.743Z,102980
2023-02-16T08:56:01.427Z,102970
2023-02-16T08:57:00.785Z,102980
2023-02-16T08:58:00.895Z,102980
2023-02-16T08:59:01.147Z,102980
2023-02-16T09:00:00.763Z,102980
2023-02-16T09:01:03.015Z,102980
2023-02-16T09:02:00.843Z,102980
2023-02-16T09:03:00.740Z,102990
2023-02-16T09:04:00.710Z,102990
2023-02-16T09:05:00.734Z,102990
2023-02-16T09:06:02.246Z,102990
2023-02-16T09:07:00.739Z,102990
2023-02-16T09:08:00.692Z,102990
2023-02-16T09:09:00.762Z,102990
2023-02-16T09:10:01.524Z,102990
2023-02-16T09:11:01.653Z,102990
2023-02-16T09:12:01.538Z,102990
2023-02-16T09:13:00.713Z,103000
2023-02-16T09:14:00.977Z,103000
2023-02-16T09:15:00.764Z,103000
2023-02-16T09:16:02.588Z,103000
2023-02-16T09:17:00.801Z,103000
2023-02-16T09:18:00.785Z,103000
2023-02-16T09:19:00.837Z,103000
2023-02-16T09:20:00.817Z,103000
2023-02-16T09:21:05.359Z,103000
2023-02-16T09:22:00.725Z,103000
2023-02-16T09:23:00.940Z,103000
2023-02-16T09:24:01.589Z,103000
2023-02-16T09:25:00.829Z,103000
2023-02-16T09:26:00.727Z,103000
2023-02-16T09:27:00.730Z,103000
2023-02-16T09:28:01.004Z,103000
2023-02-16T09:29:00.794Z,103000
2023-02-16T09:30:00.848Z,102990
2023-02-16T09:31:07.673Z,103000
2023-02-16T09:32:00.740Z,103000
2023-02-16T09:33:00.779Z,103000
2023-02-16T09:34:05.944Z,103000
2023-02-16T09:35:00.702Z,103000
2023-02-16T09:36:03.784Z,103010
2023-02-16T09:37:00.703Z,103010
2023-02-16T09:38:00.736Z,103010
2023-02-16T09:39:00.905Z,103010
2023-02-16T09:40:00.758Z,103010
2023-02-16T09:41:11.770Z,103000
2023-02-16T09:42:01.796Z,103010
2023-02-16T09:43:10.574Z,103000
2023-02-16T09:44:10.545Z,103000
2023-02-16T09:45:05.466Z,103000
2023-02-16T09:46:01.948Z,103010
2023-02-16T09:47:03.536Z,103010
2023-02-16T09:48:01.077Z,103010
2023-02-16T09:49:01.842Z,103010
2023-02-16T09:50:03.776Z,103010
2023-02-16T09:51:02.781Z,103010
2023-02-16T09:52:08.837Z,103010
2023-02-16T09:53:04.836Z,103020
2023-02-16T09:54:10.552Z,103020
2023-02-16T09:55:01.486Z,103020
2023-02-16T09:56:10.590Z,103020
2023-02-16T09:57:10.556Z,103020
2023-02-16T09:58:06.231Z,103020
2023-02-16T09:59:04.058Z,103020
2023-02-16T10:00:04.721Z,103020
2023-02-16T10:01:06.538Z,103020
2023-02-16T10:02:10.624Z,103020
2023-02-16T10:03:08.125Z,103020
2023-02-16T10:04:10.539Z,103020
2023-02-16T10:05:10.561Z,103020
2023-02-16T10:06:01.672Z,103020
2023-02-16T10:07:01.738Z,103020
2023-02-16T10:08:03.748Z,103020
2023-02-16T10:09:10.581Z,103020
2023-02-16T10:10:01.949Z,103030
2023-02-16T10:11:06.746Z,103030
2023-02-16T10:12:03.327Z,103030
2023-02-16T10:13:03.602Z,103030
2023-02-16T10:14:08.056Z,103030
2023-02-16T10:15:10.575Z,103030
2023-02-16T10:16:01.261Z,103030
2023-02-16T10:17:05.284Z,103030
2023-02-16T10:18:04.239Z,103030
2023-02-16T10:19:06.442Z,103030
2023-02-16T10:20:10.633Z,103030
2023-02-16T10:21:03.232Z,103030
2023-02-16T10:22:03.698Z,103030
2023-02-16T10:23:00.760Z,103030
2023-02-16T10:24:02.394Z,103030
2023-02-16T10:25:02.072Z,103030
2023-02-16T10:26:00.686Z,103030
2023-02-16T10:27:06.370Z,103030
2023-02-16T10:28:10.599Z,103040
2023-02-16T10:29:10.522Z,103040
2023-02-16T10:30:00.800Z,103030
2023-02-16T10:31:03.452Z,103030
2023-02-16T10:32:00.811Z,103030
2023-02-16T10:33:10.555Z,103030
2023-02-16T10:34:10.576Z,103030
2023-02-16T10:35:00.746Z,103030
2023-02-16T10:36:02.478Z,103030
2023-02-16T10:37:10.585Z,103030
2023-02-16T10:38:00.720Z,103030
2023-02-16T10:39:07.094Z,103030
2023-02-16T10:40:04.174Z,103030
2023-02-16T10:41:05.362Z,103030
2023-02-16T10:42:05.973Z,103040
2023-02-16T10:43:05.713Z,103040
2023-02-16T10:44:00.685Z,103040
2023-02-16T10:45:01.819Z,103040
2023-02-16T10:46:01.385Z,103040
2023-02-16T10:47:02.228Z,103040
2023-02-16T10:48:00.934Z,103050
2023-02-16T10:49:00.744Z,103040
2023-02-16T10:50:00.804Z,103040
2023-02-16T10:51:02.615Z,103040
2023-02-16T10:52:01.810Z,103040
2023-02-16T10:53:10.610Z,103040
2023-02-16T10:54:03.446Z,103040
2023-02-16T10:55:01.245Z,103050
2023-02-16T10:56:01.135Z,103040
2023-02-16T10:57:01.769Z,103050
2023-02-16T10:58:01.036Z,103040
2023-02-16T10:59:04.176Z,103050
2023-02-16T11:00:03.819Z,103040
2023-02-16T11:01:10.650Z,103040
2023-02-16T11:02:02.463Z,103040
2023-02-16T11:03:01.441Z,103040
2023-02-16T11:04:00.831Z,103040
2023-02-16T11:05:00.934Z,103040
2023-02-16T11:06:10.590Z,103040
2023-02-16T11:07:02.155Z,103040
2023-02-16T11:08:01.550Z,103040
2023-02-16T11:09:01.461Z,103050
2023-02-16T11:10:10.600Z,103050
2023-02-16T11:11:08.343Z,103040
2023-02-16T11:12:02.139Z,103040
2023-02-16T11:13:01.375Z,103040
2023-02-16T11:14:02.686Z,103040
2023-02-16T11:15:01.701Z,103040
2023-02-16T11:17:10.572Z,103040
2023-02-16T11:18:03.465Z,103040
2023-02-16T11:19:04.795Z,103040
2023-02-16T11:20:03.743Z,103040
2023-02-16T11:21:01.084Z,103040
2023-02-16T11:22:00.737Z,103040
2023-02-16T11:23:10.597Z,103040
2023-02-16T11:24:00.697Z,103030
2023-02-16T11:25:10.560Z,103040
2023-02-16T11:26:02.591Z,103030
2023-02-16T11:27:02.553Z,103030
2023-02-16T11:28:00.998Z,103030
2023-02-16T11:29:10.633Z,103030
2023-02-16T11:30:10.665Z,103030
2023-02-16T11:31:04.613Z,103030
2023-02-16T11:32:06.987Z,103030
2023-02-16T11:33:01.727Z,103030
2023-02-16T11:34:10.573Z,103030
2023-02-16T11:35:00.976Z,103030
2023-02-16T11:36:00.894Z,103030
2023-02-16T11:37:02.929Z,103030
2023-02-16T11:38:00.740Z,103030
2023-02-16T11:39:03.817Z,103030
2023-02-16T11:40:05.768Z,103030
2023-02-16T11:41:02.547Z,103030
2023-02-16T11:42:02.979Z,103030
2023-02-16T11:43:01.275Z,103030
2023-02-16T11:44:01.774Z,103030
2023-02-16T11:45:02.535Z,103020
2023-02-16T11:46:10.605Z,103030
2023-02-16T11:47:03.201Z,103020
2023-02-16T11:48:03.765Z,103030
2023-02-16T11:49:10.556Z,103020
2023-02-16T11:50:10.563Z,103020
2023-02-16T11:51:02.580Z,103020
2023-02-16T11:52:10.576Z,103020
2023-02-16T11:53:10.582Z,103020
2023-02-16T11:54:02.827Z,103020
2023-02-16T11:55:01.241Z,103020
2023-02-16T11:56:10.566Z,103020
2023-02-16T11:57:02.493Z,103020
2023-02-16T11:58:10.570Z,103020
2023-02-16T11:59:05.176Z,103020
2023-02-16T12:00:03.229Z,103020
2023-02-16T12:01:02.064Z,103020
2023-02-16T12:02:10.589Z,103010
2023-02-16T12:03:01.696Z,103010
2023-02-16T12:04:10.642Z,103010
2023-02-16T12:05:04.095Z,103010
2023-02-16T12:06:04.120Z,103010
2023-02-16T12:07:04.061Z,103010
2023-02-16T12:08:10.600Z,103010
2023-02-16T12:09:00.754Z,103010
2023-02-16T12:10:01.716Z,103010
2023-02-16T12:11:10.523Z,103000
2023-02-16T12:12:00.712Z,103010
2023-02-16T12:13:09.794Z,103000
2023-02-16T12:14:10.561Z,103000
2023-02-16T12:15:10.589Z,103000
2023-02-16T12:16:00.731Z,103000
2023-02-16T12:17:10.586Z,103000
2023-02-16T12:18:01.715Z,103000
2023-02-16T12:19:10.599Z,103000
2023-02-16T12:20:10.589Z,102990
2023-02-16T12:21:10.582Z,102990
2023-02-16T12:22:04.133Z,102990
2023-02-16T12:23:10.587Z,102990
2023-02-16T12:24:12.515Z,102990
2023-02-16T12:25:09.165Z,102980
2023-02-16T12:26:02.072Z,102980
2023-02-16T12:27:02.382Z,102980
2023-02-16T12:28:04.116Z,102980
2023-02-16T12:29:10.555Z,102980
2023-02-16T12:30:06.862Z,102980
2023-02-16T12:31:01.747Z,102980
2023-02-16T12:32:04.386Z,102980
2023-02-16T12:33:10.590Z,102980
2023-02-16T12:34:01.729Z,102970